Time;durP1;ratioP1;P1;durP2;ratioP2;P2;SDS_P1;SDS_P2;PMS_P1;PMS_P2;Temp;Humidity;BMP_temperature;BMP_pressure;BME280_temperature;BME280_humidity;BME280_pressure;Samples;Min_cycle;Max_cycle;Signal;HPM_P1;HPM_P2
2024/01/29 00:00:15;;;;;;;3.20;1.03;;;;;;;2.85;81.78;102555.41;5054474;28;20517;-72
2024/01/29 00:02:43;;;;;;;3.70;1.13;;;;;;;2.86;81.60;102554.38;5053758;28;20498;-72
2024/01/29 00:05:11;;;;;;;4.10;1.43;;;;;;;2.90;82.41;102557.47;5053918;28;20492;-72
2024/01/29 00:07:37;;;;;;;3.60;1.27;;;;;;;2.93;82.11;102557.91;5054632;28;20466;-72
2024/01/29 00:10:05;;;;;;;2.53;1.13;;;;;;;2.98;81.98;102558.13;5054230;28;20449;-72
2024/01/29 00:12:31;;;;;;;2.03;0.73;;;;;;;2.98;81.81;102552.78;5053799;28;20989;-72
2024/01/29 00:14:57;;;;;;;1.87;0.77;;;;;;;3.07;81.90;102556.09;5054397;28;20447;-72
2024/01/29 00:17:24;;;;;;;3.10;0.67;;;;;;;3.09;81.76;102562.06;5054162;28;20577;-71
2024/01/29 00:19:50;;;;;;;1.90;0.80;;;;;;;3.12;81.25;102553.63;5054506;28;20438;-71
2024/01/29 00:22:18;;;;;;;1.90;0.80;;;;;;;3.09;80.83;102546.00;5053895;28;20545;-71
2024/01/29 00:24:46;;;;;;;2.10;0.77;;;;;;;3.09;80.82;102551.34;5053954;28;20931;-71
2024/01/29 00:27:13;;;;;;;2.73;1.27;;;;;;;3.10;80.85;102547.66;5054074;28;20457;-71
2024/01/29 00:29:39;;;;;;;2.10;0.97;;;;;;;3.07;81.10;102542.69;5053921;28;20466;-71
2024/01/29 00:32:07;;;;;;;1.70;0.53;;;;;;;3.09;80.85;102540.63;5053968;28;20462;-71
2024/01/29 00:34:34;;;;;;;1.70;0.60;;;;;;;3.12;80.88;102539.41;5053840;28;20525;-71
2024/01/29 00:37:03;;;;;;;1.87;0.57;;;;;;;3.05;79.69;102536.72;5053743;28;20521;-72
2024/01/29 00:39:31;;;;;;;3.20;1.47;;;;;;;3.05;79.34;102542.06;5054069;28;20446;-71
2024/01/29 00:41:58;;;;;;;2.77;0.90;;;;;;;3.00;79.05;102541.84;5054312;28;20554;-71
2024/01/29 00:44:24;;;;;;;1.90;0.77;;;;;;;2.98;78.80;102546.59;5053532;28;20489;-71
2024/01/29 00:46:51;;;;;;;2.27;1.23;;;;;;;2.94;79.20;102540.81;5053774;28;20512;-71
2024/01/29 00:49:17;;;;;;;6.47;1.90;;;;;;;2.94;78.89;102531.97;5053391;28;20992;-70
2024/01/29 00:51:44;;;;;;;2.60;1.60;;;;;;;2.94;78.70;102540.00;5053534;28;20808;-67
2024/01/29 00:54:11;;;;;;;2.07;0.90;;;;;;;2.86;78.82;102545.53;5054196;28;20469;-66
2024/01/29 00:56:39;;;;;;;2.53;0.97;;;;;;;2.83;78.91;102540.56;5053868;28;20521;-68
2024/01/29 00:59:05;;;;;;;2.57;1.30;;;;;;;2.81;79.54;102545.31;5053269;28;20529;-69
2024/01/29 01:01:32;;;;;;;1.83;0.63;;;;;;;2.81;80.38;102523.91;5053315;28;20434;-69
2024/01/29 01:03:58;;;;;;;2.37;0.87;;;;;;;2.81;81.22;102529.25;5053635;28;20789;-69
2024/01/29 01:06:25;;;;;;;4.27;1.30;;;;;;;2.78;80.51;102528.59;5053334;28;20517;-69
2024/01/29 01:08:52;;;;;;;2.00;0.97;;;;;;;2.77;79.41;102532.31;5053333;28;20509;-69
2024/01/29 01:11:19;;;;;;;5.60;1.17;;;;;;;2.78;79.31;102539.31;5052990;28;21116;-69
2024/01/29 01:13:49;;;;;;;2.83;0.80;;;;;;;2.74;79.04;102531.88;5053343;28;20522;-69
2024/01/29 01:16:16;;;;;;;1.70;0.57;;;;;;;2.73;79.36;102541.75;5057906;28;20422;-69
2024/01/29 01:18:42;;;;;;;3.20;1.30;;;;;;;2.75;79.81;102539.72;5057498;28;20508;-69
2024/01/29 01:21:09;;;;;;;1.60;0.50;;;;;;;2.75;79.23;102528.22;5057496;28;20445;-70
2024/01/29 01:23:36;;;;;;;7.60;2.20;;;;;;;2.75;79.22;102537.06;5057364;28;20470;-70
2024/01/29 01:26:03;;;;;;;1.80;0.50;;;;;;;2.68;78.82;102530.03;5057268;28;20486;-75
2024/01/29 01:28:30;;;;;;;1.70;0.40;;;;;;;2.60;79.25;102524.84;5057067;28;20874;-72
2024/01/29 01:30:58;;;;;;;1.93;0.80;;;;;;;2.59;81.02;102524.00;5057315;28;20473;-71
2024/01/29 01:33:25;;;;;;;2.20;1.10;;;;;;;2.66;80.42;102530.22;5056787;28;20974;-70
2024/01/29 01:35:51;;;;;;;1.80;0.50;;;;;;;2.66;80.20;102524.88;5056911;28;20949;-71
2024/01/29 01:38:18;;;;;;;5.13;0.93;;;;;;;2.64;79.55;102524.25;5057451;28;20440;-71
2024/01/29 01:40:45;;;;;;;5.23;1.60;;;;;;;2.71;81.11;102529.63;5057130;28;20442;-71
2024/01/29 01:43:16;;;;;;;2.20;1.00;;;;;;;2.78;81.35;102517.91;5056982;28;20485;-71
2024/01/29 01:45:43;;;;;;;1.90;0.90;;;;;;;2.82;81.06;102515.66;5056918;28;20507;-71
2024/01/29 01:48:11;;;;;;;2.50;0.90;;;;;;;2.85;81.48;102509.91;5056626;28;20537;-71
2024/01/29 01:50:38;;;;;;;2.47;1.33;;;;;;;2.89;80.96;102511.16;5057243;28;20423;-71
2024/01/29 01:53:05;;;;;;;3.67;1.37;;;;;;;2.91;80.78;102508.28;5056806;28;20496;-71
2024/01/29 01:55:31;;;;;;;2.67;0.83;;;;;;;2.93;80.92;102508.91;5057499;28;20458;-71
2024/01/29 01:58:00;;;;;;;3.40;0.90;;;;;;;2.95;80.98;102501.47;5056726;28;20536;-71
2024/01/29 02:00:27;;;;;;;1.90;1.00;;;;;;;2.98;80.52;102501.09;5057491;28;20473;-70
2024/01/29 02:02:54;;;;;;;2.33;1.07;;;;;;;2.99;80.23;102498.19;5056670;28;20517;-70
2024/01/29 02:05:22;;;;;;;2.20;1.00;;;;;;;3.03;79.85;102495.94;5056833;28;20499;-70
2024/01/29 02:07:49;;;;;;;2.00;0.90;;;;;;;3.04;79.86;102490.38;5056922;28;20490;-70
2024/01/29 02:10:16;;;;;;;4.17;1.43;;;;;;;2.99;80.53;102484.81;5056519;28;20525;-70
2024/01/29 02:12:42;;;;;;;2.00;1.03;;;;;;;3.05;80.05;102480.50;5056569;28;20541;-70
2024/01/29 02:15:10;;;;;;;5.00;1.60;;;;;;;2.99;78.85;102474.09;5056712;28;20504;-70
2024/01/29 02:17:36;;;;;;;1.90;0.80;;;;;;;2.98;79.06;102472.47;5056353;28;20438;-70
2024/01/29 02:20:05;;;;;;;3.57;1.30;;;;;;;2.96;78.77;102479.84;5056248;28;20476;-70
2024/01/29 02:22:33;;;;;;;5.97;0.70;;;;;;;3.00;79.42;102481.09;5056268;28;20549;-72
2024/01/29 02:25:00;;;;;;;1.93;0.57;;;;;;;3.01;78.67;102477.44;5056684;28;20541;-71
2024/01/29 02:27:26;;;;;;;1.70;0.60;;;;;;;2.98;78.56;102477.00;5055462;28;20477;-71
2024/01/29 02:29:53;;;;;;;2.83;1.33;;;;;;;2.96;78.51;102473.69;5056496;28;20438;-71
2024/01/29 02:32:20;;;;;;;4.93;1.53;;;;;;;2.95;78.78;102466.69;5056217;28;20537;-71
2024/01/29 02:34:46;;;;;;;1.67;0.50;;;;;;;2.93;78.84;102474.13;5055869;28;20518;-71
2024/01/29 02:37:13;;;;;;;1.60;0.50;;;;;;;2.96;78.89;102471.00;5055846;28;21024;-71
2024/01/29 02:39:39;;;;;;;1.83;0.73;;;;;;;3.00;78.87;102469.56;5056020;28;20521;-71
2024/01/29 02:42:07;;;;;;;6.17;1.27;;;;;;;3.02;78.99;102470.22;5055945;28;20545;-71
2024/01/29 02:44:35;;;;;;;6.80;1.30;;;;;;;3.00;78.84;102472.25;5055684;28;20827;-71
2024/01/29 02:47:01;;;;;;;2.73;1.00;;;;;;;3.02;79.42;102473.72;5055787;28;20569;-70
2024/01/29 02:49:28;;;;;;;3.63;1.13;;;;;;;3.02;78.81;102467.53;5055896;28;20529;-70
2024/01/29 02:51:55;;;;;;;8.63;1.43;;;;;;;3.01;79.08;102460.50;5055737;28;20918;-71
2024/01/29 02:54:21;;;;;;;2.30;1.00;;;;;;;3.02;78.45;102464.88;5055819;28;20525;-71
2024/01/29 02:56:48;;;;;;;3.30;1.13;;;;;;;2.96;78.31;102462.97;5055711;28;20438;-71
2024/01/29 02:59:16;;;;;;;1.70;0.57;;;;;;;2.97;79.54;102459.31;5055854;28;20909;-72
2024/01/29 03:01:42;;;;;;;4.47;1.67;;;;;;;2.97;80.58;102464.66;5055189;28;20542;-72
2024/01/29 03:04:09;;;;;;;2.20;0.83;;;;;;;2.99;81.14;102462.59;5055286;28;21013;-72
2024/01/29 03:06:35;;;;;;;2.10;0.70;;;;;;;3.02;81.07;102462.19;5055808;28;20517;-72
2024/01/29 03:09:02;;;;;;;3.30;1.17;;;;;;;3.04;80.98;102457.44;5055509;28;20517;-72
2024/01/29 03:11:29;;;;;;;2.13;0.63;;;;;;;3.03;80.87;102461.16;5055007;28;20533;-72
2024/01/29 03:13:55;;;;;;;2.73;0.83;;;;;;;3.00;81.12;102454.34;5055092;28;20486;-72
2024/01/29 03:16:23;;;;;;;4.90;1.07;;;;;;;2.99;81.05;102449.19;5055250;28;20946;-72
2024/01/29 03:18:50;;;;;;;1.67;0.47;;;;;;;2.96;81.52;102449.59;5055424;28;20438;-72
2024/01/29 03:21:16;;;;;;;2.23;0.70;;;;;;;2.96;81.57;102452.28;5055192;28;20533;-72
2024/01/29 03:23:43;;;;;;;2.97;0.63;;;;;;;2.96;81.71;102446.91;5055240;28;20528;-72
2024/01/29 03:26:10;;;;;;;2.30;0.87;;;;;;;2.96;81.96;102444.25;5054919;28;20923;-72
2024/01/29 03:28:36;;;;;;;3.00;0.93;;;;;;;2.96;81.48;102446.91;5054904;28;20997;-72
2024/01/29 03:31:03;;;;;;;1.60;0.50;;;;;;;2.95;81.68;102439.94;5055104;28;20467;-72
2024/01/29 03:33:31;;;;;;;2.23;0.97;;;;;;;2.92;81.20;102451.03;5054926;28;20535;-72
2024/01/29 03:35:57;;;;;;;2.03;0.70;;;;;;;2.89;80.29;102438.06;5054660;28;20442;-74
2024/01/29 03:38:24;;;;;;;5.73;1.03;;;;;;;2.87;79.88;102442.78;5054778;28;20449;-68
2024/01/29 03:40:51;;;;;;;2.03;0.67;;;;;;;2.82;79.62;102450.63;5054692;28;20989;-68
2024/01/29 03:43:19;;;;;;;4.83;1.07;;;;;;;2.82;80.17;102448.75;5054758;28;20494;-69
2024/01/29 03:45:45;;;;;;;3.13;0.90;;;;;;;2.81;79.66;102441.75;5054420;28;20541;-71
2024/01/29 03:48:12;;;;;;;2.07;0.63;;;;;;;2.78;80.11;102436.81;5055107;28;20484;-71
2024/01/29 03:50:40;;;;;;;2.30;1.13;;;;;;;2.80;80.28;102447.31;5054971;28;20438;-71
2024/01/29 03:53:07;;;;;;;2.00;0.80;;;;;;;2.80;79.85;102440.13;5054287;28;20497;-71
2024/01/29 03:55:33;;;;;;;3.73;1.40;;;;;;;2.76;79.82;102444.22;5055224;28;20464;-71
2024/01/29 03:58:00;;;;;;;2.07;0.90;;;;;;;2.80;80.47;102442.78;5054539;28;20446;-72
2024/01/29 04:00:27;;;;;;;4.03;1.07;;;;;;;2.86;80.58;102443.81;5054134;28;21000;-71
2024/01/29 04:02:53;;;;;;;2.47;1.13;;;;;;;2.86;79.82;102441.97;5054370;28;20462;-71
2024/01/29 04:05:20;;;;;;;2.43;0.60;;;;;;;2.90;79.77;102437.03;5054858;28;20508;-71
2024/01/29 04:07:48;;;;;;;5.50;0.87;;;;;;;2.94;80.07;102438.28;5054595;28;20478;-71
2024/01/29 04:10:15;;;;;;;1.70;0.60;;;;;;;2.97;81.01;102435.22;5054330;28;20446;-72
2024/01/29 04:12:42;;;;;;;4.80;1.40;;;;;;;3.01;81.59;102439.94;5054500;28;20464;-71
2024/01/29 04:15:09;;;;;;;2.00;0.77;;;;;;;3.04;80.11;102434.16;5054745;28;20434;-70
2024/01/29 04:17:36;;;;;;;3.63;1.07;;;;;;;3.02;79.15;102430.88;5054152;28;20488;-70
2024/01/29 04:20:05;;;;;;;1.80;0.80;;;;;;;3.06;78.93;102427.81;5054159;28;20599;-71
2024/01/29 04:22:32;;;;;;;2.00;1.00;;;;;;;3.06;79.64;102430.47;5053601;28;21007;-71
2024/01/29 04:25:01;;;;;;;2.43;0.93;;;;;;;3.03;78.92;102431.69;5053858;28;20482;-71
2024/01/29 04:27:27;;;;;;;1.90;0.70;;;;;;;3.03;79.21;102421.00;5054271;28;20573;-71
2024/01/29 04:29:54;;;;;;;9.60;2.17;;;;;;;3.03;79.15;102421.00;5053872;28;20482;-71
2024/01/29 04:32:20;;;;;;;5.50;1.27;;;;;;;3.03;78.56;102412.97;5053840;28;20548;-71
2024/01/29 04:34:47;;;;;;;3.93;1.80;;;;;;;3.04;79.00;102420.78;5054285;28;20438;-71
2024/01/29 04:37:14;;;;;;;3.50;1.60;;;;;;;3.07;79.54;102416.88;5053793;28;20445;-71
2024/01/29 04:39:40;;;;;;;2.90;1.10;;;;;;;3.05;79.53;102413.56;5053787;28;20558;-71
2024/01/29 04:42:08;;;;;;;3.53;2.00;;;;;;;3.09;79.76;102411.31;5053386;28;20996;-71
2024/01/29 04:44:35;;;;;;;2.27;1.47;;;;;;;3.02;80.76;102412.16;5053504;28;20549;-71
2024/01/29 04:47:02;;;;;;;2.57;0.83;;;;;;;3.04;80.72;102409.25;5053580;28;20477;-71
2024/01/29 04:49:29;;;;;;;2.47;0.90;;;;;;;3.08;80.59;102407.81;5052817;28;20501;-71
2024/01/29 04:51:55;;;;;;;2.10;0.83;;;;;;;3.03;81.04;102403.09;5053572;28;20493;-71
2024/01/29 04:54:22;;;;;;;2.40;0.53;;;;;;;3.02;80.74;102409.47;5053949;28;20521;-72
2024/01/29 04:56:48;;;;;;;2.00;0.70;;;;;;;3.04;80.65;102411.94;5053278;28;20922;-71
2024/01/29 04:59:17;;;;;;;2.57;1.37;;;;;;;3.02;80.71;102412.16;5053448;28;20717;-71
2024/01/29 05:01:43;;;;;;;4.20;1.07;;;;;;;3.05;80.90;102413.56;5053472;28;20954;-71
2024/01/29 05:04:10;;;;;;;5.40;1.13;;;;;;;3.03;80.95;102416.47;5053867;28;20470;-71
2024/01/29 05:06:36;;;;;;;2.47;1.00;;;;;;;3.03;81.26;102400.41;5053740;28;20514;-71
2024/01/29 05:09:03;;;;;;;2.00;0.93;;;;;;;3.00;80.49;102405.34;5053430;28;20443;-71
2024/01/29 05:11:30;;;;;;;4.13;1.90;;;;;;;2.98;80.22;102404.72;5053032;28;20532;-70
2024/01/29 05:13:56;;;;;;;2.30;1.00;;;;;;;2.94;79.46;102400.81;5053380;28;20445;-70
2024/01/29 05:16:25;;;;;;;1.90;0.80;;;;;;;2.90;79.48;102405.75;5053340;28;20873;-70
2024/01/29 05:18:52;;;;;;;2.37;0.93;;;;;;;2.89;79.55;102408.63;5053334;28;20442;-70
2024/01/29 05:21:19;;;;;;;7.60;2.73;;;;;;;2.83;80.04;102407.59;5053251;28;20525;-70
2024/01/29 05:23:45;;;;;;;1.60;0.40;;;;;;;2.85;79.89;102407.41;5053735;28;20533;-70
2024/01/29 05:26:12;;;;;;;2.77;1.37;;;;;;;2.82;80.03;102416.66;5053521;28;20521;-70
2024/01/29 05:28:39;;;;;;;3.23;1.37;;;;;;;2.78;80.03;102405.53;5053103;28;20482;-69
2024/01/29 05:31:05;;;;;;;2.13;0.80;;;;;;;2.74;79.90;102414.16;5053323;28;20545;-69
2024/01/29 05:33:33;;;;;;;2.80;0.80;;;;;;;2.68;80.93;102407.78;5052806;28;20466;-70
2024/01/29 05:36:00;;;;;;;1.93;1.07;;;;;;;2.68;80.81;102407.78;5052920;28;20445;-69
2024/01/29 05:38:26;;;;;;;1.60;0.40;;;;;;;2.70;80.62;102404.88;5052856;28;20442;-69
2024/01/29 05:40:53;;;;;;;4.37;0.97;;;;;;;2.74;80.66;102406.94;5052840;28;20529;-70
2024/01/29 05:43:20;;;;;;;1.70;0.50;;;;;;;2.68;79.80;102402.44;5052723;28;20462;-70
2024/01/29 05:45:47;;;;;;;3.20;1.47;;;;;;;2.61;81.09;102403.44;5101543;22;20499;-66
2024/01/29 05:48:14;;;;;;;1.70;0.50;;;;;;;2.61;80.87;102409.63;5093383;28;20480;-66
2024/01/29 05:50:42;;;;;;;2.07;0.73;;;;;;;2.61;80.30;102401.63;5093576;28;20519;-66
2024/01/29 05:53:10;;;;;;;9.33;2.57;;;;;;;2.57;80.70;102411.06;5092662;28;20510;-67
2024/01/29 05:55:36;;;;;;;3.10;1.47;;;;;;;2.57;81.08;102397.69;5093067;28;20479;-66
2024/01/29 05:58:03;;;;;;;2.10;0.77;;;;;;;2.60;81.32;102389.25;5092954;28;20513;-66
2024/01/29 06:00:30;;;;;;;2.43;0.90;;;;;;;2.59;82.22;102392.94;5094361;28;20519;-66
2024/01/29 06:02:56;;;;;;;1.87;0.53;;;;;;;2.58;82.60;102390.47;5096958;28;20471;-66
2024/01/29 06:05:23;;;;;;;2.00;0.83;;;;;;;2.61;83.08;102396.25;5096984;28;20472;-66
2024/01/29 06:07:54;;;;;;;2.57;1.20;;;;;;;2.52;83.85;102389.44;5096847;28;20854;-66
2024/01/29 06:10:20;;;;;;;1.70;0.50;;;;;;;2.51;84.02;102391.28;5096893;28;20890;-67
2024/01/29 06:12:48;;;;;;;1.80;0.67;;;;;;;2.55;83.85;102391.69;5096272;28;20975;-67
2024/01/29 06:15:14;;;;;;;2.40;1.13;;;;;;;2.59;83.49;102386.78;5097217;28;20444;-67
2024/01/29 06:17:41;;;;;;;3.97;1.73;;;;;;;2.63;83.01;102386.16;5096937;28;20468;-67
2024/01/29 06:20:10;;;;;;;2.80;1.40;;;;;;;2.63;83.29;102380.81;5096644;28;20519;-66
2024/01/29 06:22:37;;;;;;;2.40;0.97;;;;;;;2.66;83.00;102382.28;5096959;28;20535;-67
2024/01/29 06:25:06;;;;;;;3.30;2.00;;;;;;;2.69;82.70;102376.50;5096693;28;20441;-67
2024/01/29 06:27:33;;;;;;;1.80;0.70;;;;;;;2.74;82.67;102390.06;5096453;28;20567;-67
2024/01/29 06:30:00;;;;;;;2.90;1.30;;;;;;;2.73;82.87;102378.56;5096499;28;20432;-67
2024/01/29 06:32:26;;;;;;;1.60;0.40;;;;;;;2.70;82.39;102383.50;5096473;28;20456;-67
2024/01/29 06:34:56;;;;;;;2.30;1.13;;;;;;;2.68;81.94;102373.00;5096636;28;20794;-68
2024/01/29 06:37:23;;;;;;;3.40;1.07;;;;;;;2.66;81.43;102380.41;5097071;28;20505;-70
2024/01/29 06:39:50;;;;;;;3.70;0.77;;;;;;;2.64;80.53;102385.13;5096709;28;20523;-66
2024/01/29 06:42:18;;;;;;;3.13;1.77;;;;;;;2.60;79.84;102378.53;5096121;28;20551;-66
2024/01/29 06:44:44;;;;;;;5.97;2.63;;;;;;;2.54;80.54;102379.38;5095952;28;20452;-66
2024/01/29 06:47:11;;;;;;;2.80;1.33;;;;;;;2.48;80.35;102386.34;5095838;28;20487;-66
2024/01/29 06:49:38;;;;;;;2.07;1.07;;;;;;;2.50;80.80;102380.78;5096224;28;20437;-65
2024/01/29 06:52:05;;;;;;;2.30;0.83;;;;;;;2.52;80.77;102384.94;5096039;28;20460;-67
2024/01/29 06:54:31;;;;;;;3.60;1.00;;;;;;;2.53;81.19;102383.91;5096131;28;20440;-66
2024/01/29 06:56:58;;;;;;;3.23;1.10;;;;;;;2.45;79.88;102391.28;5096325;28;20436;-66
2024/01/29 06:59:26;;;;;;;1.90;0.90;;;;;;;2.45;80.80;102391.28;5095860;28;20504;-66
2024/01/29 07:01:57;;;;;;;3.07;1.27;;;;;;;2.48;80.79;102393.56;5095779;28;20964;-66
2024/01/29 07:04:24;;;;;;;2.00;0.90;;;;;;;2.49;80.68;102395.19;5095592;28;20504;-66
2024/01/29 07:06:51;;;;;;;2.30;0.67;;;;;;;2.54;80.65;102398.09;5096581;28;20471;-66
2024/01/29 07:09:17;;;;;;;2.53;1.37;;;;;;;2.57;80.76;102399.50;5095779;28;20432;-66
2024/01/29 07:11:44;;;;;;;2.83;0.83;;;;;;;2.59;80.81;102398.31;5095092;28;20488;-66
2024/01/29 07:14:11;;;;;;;2.40;0.80;;;;;;;2.63;82.20;102404.91;5095904;28;20792;-66
2024/01/29 07:16:39;;;;;;;2.63;0.90;;;;;;;2.65;81.29;102402.81;5095772;28;20440;-66
2024/01/29 07:19:06;;;;;;;5.10;0.93;;;;;;;2.65;80.57;102400.16;5095629;28;20527;-67
2024/01/29 07:21:33;;;;;;;1.77;0.70;;;;;;;2.59;80.35;102392.94;5095138;28;20999;-66
2024/01/29 07:23:59;;;;;;;4.83;1.03;;;;;;;2.61;80.44;102382.03;5095377;28;20995;-68
2024/01/29 07:26:26;;;;;;;2.87;1.20;;;;;;;2.64;80.41;102389.66;5095769;28;20436;-67
2024/01/29 07:28:52;;;;;;;1.90;0.80;;;;;;;2.65;80.50;102381.41;5095487;28;20483;-67
2024/01/29 07:31:19;;;;;;;6.33;2.07;;;;;;;2.66;80.18;102385.78;5095261;28;20479;-67
2024/01/29 07:33:47;;;;;;;2.10;0.80;;;;;;;2.65;79.42;102385.94;5095211;28;20859;-67
2024/01/29 07:36:14;;;;;;;1.90;0.90;;;;;;;2.69;79.77;102381.84;5095233;28;20480;-67
2024/01/29 07:38:41;;;;;;;1.93;0.67;;;;;;;2.69;79.30;102380.00;5095275;28;20978;-67
2024/01/29 07:41:08;;;;;;;2.57;1.00;;;;;;;2.74;78.82;102377.53;5095317;28;20436;-67
2024/01/29 07:43:34;;;;;;;3.03;1.27;;;;;;;2.71;78.52;102374.47;5095123;28;20977;-67
2024/01/29 07:46:01;;;;;;;2.60;0.93;;;;;;;2.71;78.48;102385.16;5095162;28;20461;-67
2024/01/29 07:48:28;;;;;;;14.47;1.00;;;;;;;2.76;79.29;102383.50;5094945;28;20564;-67
2024/01/29 07:50:56;;;;;;;5.33;1.30;;;;;;;2.84;79.43;102389.69;5095313;28;20447;-67
2024/01/29 07:53:23;;;;;;;2.33;1.03;;;;;;;2.93;79.46;102385.78;5094744;28;20989;-67
2024/01/29 07:55:49;;;;;;;3.63;1.50;;;;;;;3.04;79.27;102385.16;5094788;28;20924;-65
2024/01/29 07:58:16;;;;;;;3.00;1.83;;;;;;;3.10;79.23;102383.50;5095063;28;20529;-65
2024/01/29 08:00:43;;;;;;;3.10;0.80;;;;;;;3.16;79.09;102374.66;5094677;28;20861;-64
2024/01/29 08:03:09;;;;;;;2.40;1.07;;;;;;;3.20;78.88;102370.53;5094717;28;20962;-65
2024/01/29 08:05:36;;;;;;;2.10;0.90;;;;;;;3.24;77.82;102369.91;5094694;28;20468;-67
2024/01/29 08:08:04;;;;;;;3.03;1.57;;;;;;;3.30;77.67;102373.63;5095204;28;20564;-68
2024/01/29 08:10:31;;;;;;;1.60;0.40;;;;;;;3.38;77.21;102369.91;5094581;28;20440;-66
2024/01/29 08:12:58;;;;;;;1.70;0.63;;;;;;;3.46;76.83;102367.00;5094451;28;20460;-66
2024/01/29 08:15:27;;;;;;;1.80;0.47;;;;;;;3.56;76.12;102367.38;5094589;28;20440;-65
2024/01/29 08:17:55;;;;;;;1.70;0.40;;;;;;;3.64;76.00;102374.38;5094270;28;20475;-66
2024/01/29 08:20:24;;;;;;;4.00;1.50;;;;;;;3.73;75.24;102384.66;5094795;28;20455;-66
2024/01/29 08:22:51;;;;;;;2.97;1.17;;;;;;;3.73;74.79;102381.97;5094004;28;21002;-66
2024/01/29 08:25:19;;;;;;;2.70;1.17;;;;;;;3.80;74.62;102380.09;5093197;28;20962;-66
2024/01/29 08:27:46;;;;;;;2.20;0.70;;;;;;;3.82;73.20;102376.38;5094670;28;20905;-66
2024/01/29 08:30:13;;;;;;;2.50;0.90;;;;;;;3.89;73.71;102380.66;5094607;28;20475;-66
2024/01/29 08:32:40;;;;;;;4.60;2.00;;;;;;;3.96;73.47;102377.97;5094106;28;20543;-66
2024/01/29 08:35:07;;;;;;;1.80;0.70;;;;;;;4.06;72.38;102375.66;5094158;28;20436;-66
2024/01/29 08:37:34;;;;;;;2.23;0.63;;;;;;;4.11;72.19;102378.50;5094085;28;20532;-67
2024/01/29 08:40:01;;;;;;;1.90;0.90;;;;;;;4.23;70.73;102370.63;5094165;28;20440;-66
2024/01/29 08:42:29;;;;;;;3.23;1.43;;;;;;;4.35;69.53;102365.41;5094286;28;20467;-66
2024/01/29 08:44:56;;;;;;;9.50;2.10;;;;;;;4.45;68.42;102355.84;5093602;28;20543;-65
2024/01/29 08:47:23;;;;;;;2.83;1.00;;;;;;;4.59;67.82;102361.13;5094442;28;20468;-64
2024/01/29 08:49:51;;;;;;;2.97;1.20;;;;;;;4.70;67.55;102366.63;5094055;28;20440;-64
2024/01/29 08:52:18;;;;;;;2.27;0.80;;;;;;;4.74;67.91;102365.16;5094033;28;20555;-64
2024/01/29 08:54:45;;;;;;;3.17;1.07;;;;;;;4.80;66.81;102360.78;5094247;28;20515;-64
2024/01/29 08:57:12;;;;;;;1.83;0.60;;;;;;;4.93;65.25;102362.53;5093943;28;20515;-64
2024/01/29 08:59:41;;;;;;;1.97;0.87;;;;;;;5.05;64.88;102360.78;5093807;28;20489;-64
2024/01/29 09:02:08;;;;;;;3.87;1.07;;;;;;;5.11;65.06;102353.69;5094140;28;20468;-64
2024/01/29 09:04:34;;;;;;;3.30;1.10;;;;;;;5.12;66.21;102356.16;5093727;28;20443;-64
2024/01/29 09:07:01;;;;;;;2.17;0.90;;;;;;;5.17;64.55;102361.69;5093785;28;20543;-64
2024/01/29 09:09:28;;;;;;;1.63;0.43;;;;;;;5.27;64.46;102369.25;5093928;28;20487;-64
2024/01/29 09:11:55;;;;;;;2.87;0.90;;;;;;;5.29;64.54;102369.84;5093822;28;21078;-64
2024/01/29 09:14:21;;;;;;;2.00;0.60;;;;;;;5.36;64.38;102362.56;5093394;28;20967;-64
2024/01/29 09:16:49;;;;;;;11.67;1.43;;;;;;;5.42;63.56;102371.59;5093262;28;20456;-64
2024/01/29 09:19:16;;;;;;;6.00;1.33;;;;;;;5.44;63.68;102364.94;5093270;28;20443;-64
2024/01/29 09:21:48;;;;;;;4.87;1.43;;;;;;;5.52;62.56;102369.19;5093764;28;20547;-63
2024/01/29 09:24:15;;;;;;;1.70;0.50;;;;;;;5.55;62.80;102368.75;5093965;28;20470;-63
2024/01/29 09:26:41;;;;;;;5.00;0.67;;;;;;;5.64;61.51;102367.41;5093644;28;20972;-63
2024/01/29 09:29:08;;;;;;;4.07;1.07;;;;;;;5.70;62.15;102369.19;5093372;28;20520;-63
2024/01/29 09:31:35;;;;;;;2.20;0.87;;;;;;;5.72;61.71;102377.88;5093283;28;20468;-64
2024/01/29 09:34:03;;;;;;;2.00;0.73;;;;;;;5.82;60.43;102370.09;5093529;28;20432;-63
2024/01/29 09:36:30;;;;;;;2.37;1.00;;;;;;;5.95;60.06;102373.72;5096066;28;20436;-64
2024/01/29 09:38:56;;;;;;;2.37;0.90;;;;;;;5.93;61.41;102373.09;5097587;28;20467;-64
2024/01/29 09:41:23;;;;;;;2.40;0.80;;;;;;;5.99;61.00;102382.97;5097374;28;20519;-63
2024/01/29 09:43:53;;;;;;;2.30;0.73;;;;;;;6.09;59.75;102385.13;5096981;28;20983;-63
2024/01/29 09:46:21;;;;;;;3.30;0.87;;;;;;;6.09;60.38;102388.63;5097318;28;20452;-64
2024/01/29 09:48:48;;;;;;;4.30;1.13;;;;;;;6.19;59.18;102380.84;5097545;28;20563;-64
2024/01/29 09:51:17;;;;;;;2.03;0.90;;;;;;;6.30;60.01;102385.47;5097176;28;20518;-64
2024/01/29 09:53:45;;;;;;;2.97;0.77;;;;;;;6.44;59.45;102387.97;5097192;28;20471;-64
2024/01/29 09:56:12;;;;;;;2.30;1.30;;;;;;;6.50;59.75;102382.47;5097500;28;20467;-64
2024/01/29 09:58:38;;;;;;;3.60;0.87;;;;;;;6.65;58.16;102382.06;5097201;28;20467;-67
2024/01/29 10:01:09;;;;;;;2.20;1.00;;;;;;;6.65;58.13;102398.22;5096863;28;20479;-63
2024/01/29 10:03:39;;;;;;;2.90;1.13;;;;;;;6.68;58.03;102389.69;5097063;28;20496;-63
2024/01/29 10:06:06;;;;;;;3.60;1.27;;;;;;;6.83;56.78;102392.78;5096726;28;21004;-63
2024/01/29 10:08:36;;;;;;;2.63;1.27;;;;;;;6.93;57.53;102394.06;5097183;28;20563;-63
2024/01/29 10:11:03;;;;;;;2.30;1.00;;;;;;;7.03;56.27;102395.13;5096608;28;20928;-63
2024/01/29 10:13:30;;;;;;;2.67;0.77;;;;;;;7.10;56.10;102392.34;5096742;28;20460;-63
2024/01/29 10:15:57;;;;;;;4.07;1.07;;;;;;;7.11;56.77;102385.91;5096526;28;20523;-63
2024/01/29 10:18:24;;;;;;;2.33;0.90;;;;;;;7.11;56.72;102390.47;5096763;28;20479;-63
2024/01/29 10:20:59;;;;;;;2.20;0.80;;;;;;;7.21;56.48;102388.81;5097088;28;20869;-63
2024/01/29 10:23:26;;;;;;;2.30;1.00;;;;;;;7.22;56.56;102387.78;5096689;28;20484;-63
2024/01/29 10:25:56;;;;;;;3.00;1.57;;;;;;;7.31;56.14;102382.88;5096524;28;20954;-63
2024/01/29 10:28:23;;;;;;;2.60;0.70;;;;;;;7.34;55.62;102385.91;5096597;28;20555;-63
2024/01/29 10:30:50;;;;;;;3.90;1.10;;;;;;;7.40;56.45;102384.16;5096466;28;20433;-63
2024/01/29 10:33:17;;;;;;;2.33;0.80;;;;;;;7.31;57.06;102383.69;5096039;28;20495;-63
2024/01/29 10:35:43;;;;;;;2.13;1.00;;;;;;;7.32;56.78;102385.31;5096424;28;20515;-63
2024/01/29 10:38:15;;;;;;;1.97;0.90;;;;;;;7.37;56.49;102384.63;5096653;28;20526;-63
2024/01/29 10:40:44;;;;;;;2.57;0.93;;;;;;;7.37;56.83;102379.22;5096341;28;20465;-63
2024/01/29 10:43:17;;;;;;;2.83;0.80;;;;;;;7.47;56.44;102384.03;5096178;28;20482;-63
2024/01/29 10:45:47;;;;;;;2.63;0.87;;;;;;;7.49;56.45;102387.31;5096219;28;20880;-63
2024/01/29 10:48:20;;;;;;;2.97;1.00;;;;;;;7.54;55.61;102382.84;5095099;28;20444;-63
2024/01/29 10:50:47;;;;;;;3.37;1.10;;;;;;;7.68;55.04;102379.91;5096253;28;20892;-63
2024/01/29 10:53:15;;;;;;;2.77;1.07;;;;;;;7.83;54.42;102382.91;5096361;28;20552;-63
2024/01/29 10:55:43;;;;;;;6.23;1.17;;;;;;;7.91;54.92;102387.13;5096051;28;20436;-63
2024/01/29 10:58:14;;;;;;;3.47;1.50;;;;;;;8.02;54.26;102380.88;5095902;28;20524;-63
2024/01/29 11:00:41;;;;;;;4.20;1.40;;;;;;;8.15;53.23;102374.41;5096276;28;20421;-63
2024/01/29 11:03:09;;;;;;;2.63;1.03;;;;;;;8.26;53.46;102363.53;5095876;28;20453;-63
2024/01/29 11:05:37;;;;;;;5.60;1.10;;;;;;;8.41;53.10;102379.25;5096433;28;20440;-63
2024/01/29 11:08:06;;;;;;;2.13;0.80;;;;;;;8.53;52.86;102368.38;5095937;28;20526;-63
2024/01/29 11:10:35;;;;;;;3.83;1.03;;;;;;;8.62;52.90;102374.19;5095833;28;20515;-63
2024/01/29 11:13:05;;;;;;;3.27;1.43;;;;;;;8.69;52.77;102374.88;5095725;28;20472;-63
2024/01/29 11:15:33;;;;;;;3.10;1.47;;;;;;;8.83;51.45;102371.59;5095671;28;20444;-63
2024/01/29 11:17:59;;;;;;;2.33;0.90;;;;;;;8.98;51.30;102367.50;5095434;28;20989;-63
2024/01/29 11:20:26;;;;;;;3.17;1.77;;;;;;;9.05;51.53;102362.75;5095660;28;20465;-63
2024/01/29 11:22:56;;;;;;;4.87;1.10;;;;;;;9.20;50.30;102346.75;5095120;28;20499;-63
2024/01/29 11:25:25;;;;;;;2.77;0.93;;;;;;;9.42;48.56;102352.19;5095439;28;20425;-63
2024/01/29 11:27:52;;;;;;;4.00;1.07;;;;;;;9.49;50.12;102360.16;5095365;28;20504;-63
2024/01/29 11:30:20;;;;;;;4.80;1.53;;;;;;;9.64;48.71;102357.63;5095531;28;20484;-65
2024/01/29 11:32:49;;;;;;;3.80;1.10;;;;;;;9.72;49.48;102354.50;5094918;28;20887;-64